Time;durP1;ratioP1;P1;durP2;ratioP2;P2;SDS_P1;SDS_P2;PMS_P1;PMS_P2;Temp;Humidity;BMP_temperature;BMP_pressure;BME280_temperature;BME280_humidity;BME280_pressure;Samples;Min_cycle;Max_cycle;Signal;HPM_P1;HPM_P2
2022/08/08 00:00:50;;;;;;;5.88;2.50;;;;;;;;;;4967698;28;20054;-68
2022/08/08 00:03:21;;;;;;;11.27;2.92;;;;;;;;;;4968127;28;20043;-68
2022/08/08 00:06:01;;;;;;;11.38;2.55;;;;;;;;;;4967669;28;20054;-66
2022/08/08 00:08:49;;;;;;;9.63;2.80;;;;;;;;;;4963287;28;20050;-67
2022/08/08 00:11:30;;;;;;;10.52;2.95;;;;;;;;;;4966233;28;20554;-69
2022/08/08 00:14:23;;;;;;;10.65;3.40;;;;;;;;;;4965205;28;20050;-68
2022/08/08 00:17:09;;;;;;;7.03;3.13;;;;;;;;;;4951369;28;20046;-69
2022/08/08 00:19:47;;;;;;;6.72;2.88;;;;;;;;;;4953989;28;20448;-70
2022/08/08 00:22:38;;;;;;;7.80;3.30;;;;;;;;;;4956666;28;20133;-67
2022/08/08 00:25:12;;;;;;;7.40;3.20;;;;;;;;;;4958432;28;20046;-66
2022/08/08 00:27:41;;;;;;;7.32;2.88;;;;;;;;;;4968293;28;20047;-66
2022/08/08 00:30:10;;;;;;;6.57;3.15;;;;;;;;;;4966786;28;20047;-69
2022/08/08 00:32:56;;;;;;;8.43;3.17;;;;;;;;;;4966947;28;20042;-67
2022/08/08 00:35:28;;;;;;;7.80;3.33;;;;;;;;;;4965578;28;20046;-67
2022/08/08 00:38:09;;;;;;;10.43;3.13;;;;;;;;;;4967160;28;20093;-66
2022/08/08 00:40:49;;;;;;;7.25;3.20;;;;;;;;;;4969754;28;20412;-68
2022/08/08 00:43:37;;;;;;;7.65;3.03;;;;;;;;;;4970345;28;20043;-66
2022/08/08 00:46:29;;;;;;;10.13;3.08;;;;;;;;;;4966129;28;20125;-68
2022/08/08 00:49:14;;;;;;;8.63;2.75;;;;;;;;;;4966821;28;20046;-66
2022/08/08 00:51:58;;;;;;;6.90;3.10;;;;;;;;;;4961854;28;20409;-66
2022/08/08 00:54:36;;;;;;;6.65;2.90;;;;;;;;;;4966637;28;20288;-69
2022/08/08 00:57:20;;;;;;;7.80;3.03;;;;;;;;;;4967996;28;20050;-67
2022/08/08 01:00:12;;;;;;;4.93;2.70;;;;;;;;;;4966686;28;20097;-67
2022/08/08 01:03:15;;;;;;;8.27;2.97;;;;;;;;;;4965651;28;20059;-66
2022/08/08 01:06:08;;;;;;;8.23;2.92;;;;;;;;;;4965566;28;20043;-66
2022/08/08 01:09:20;;;;;;;4.97;2.63;;;;;;;;;;4961703;28;20038;-67
2022/08/08 01:12:04;;;;;;;6.22;2.63;;;;;;;;;;4967427;28;20289;-66
2022/08/08 01:14:49;;;;;;;;;;;;;;;;;;4962268;28;20043;-68
2022/08/08 01:17:33;;;;;;;7.20;2.85;;;;;;;;;;4969931;28;19933;-67
2022/08/08 01:20:16;;;;;;;8.30;2.83;;;;;;;;;;4965909;28;20371;-65
2022/08/08 01:23:22;;;;;;;6.95;3.13;;;;;;;;;;4965561;28;20074;-65
2022/08/08 01:26:14;;;;;;;5.57;2.85;;;;;;;;;;4961417;28;20053;-66
2022/08/08 01:28:57;;;;;;;7.03;3.17;;;;;;;;;;4966502;28;20082;-66
2022/08/08 01:32:04;;;;;;;5.07;2.70;;;;;;;;;;4968609;28;20618;-67
2022/08/08 01:34:51;;;;;;;9.52;3.25;;;;;;;;;;4965254;28;20441;-66
2022/08/08 01:37:48;;;;;;;8.68;3.30;;;;;;;;;;4967448;28;20094;-67
2022/08/08 01:40:28;;;;;;;12.40;2.92;;;;;;;;;;4967312;28;20319;-66
2022/08/08 01:43:13;;;;;;;10.73;3.00;;;;;;;;;;4968078;28;20411;-65
2022/08/08 01:45:56;;;;;;;9.80;3.30;;;;;;;;;;4961015;28;20058;-67
2022/08/08 01:48:44;;;;;;;5.47;3.00;;;;;;;;;;4964898;28;20145;-66
2022/08/08 01:51:59;;;;;;;5.32;2.80;;;;;;;;;;4968705;28;20086;-67
2022/08/08 01:54:38;;;;;;;4.65;2.45;;;;;;;;;;4998468;28;20112;-67
2022/08/08 01:57:20;;;;;;;8.35;2.92;;;;;;;;;;5004908;28;20050;-67
2022/08/08 01:59:46;;;;;;;6.72;2.58;;;;;;;;;;5004787;28;20050;-67
2022/08/08 02:02:35;;;;;;;9.07;2.90;;;;;;;;;;5004317;28;20617;-66
2022/08/08 02:05:36;;;;;;;7.22;2.90;;;;;;;;;;5004741;28;20053;-67
2022/08/08 02:08:17;;;;;;;7.60;3.08;;;;;;;;;;5004337;28;20054;-65
2022/08/08 02:11:08;;;;;;;7.63;2.92;;;;;;;;;;5004526;28;20074;-65
2022/08/08 02:13:54;;;;;;;9.00;3.05;;;;;;;;;;5006386;28;20046;-66
2022/08/08 02:16:41;;;;;;;6.60;2.90;;;;;;;;;;5004448;28;20140;-67
2022/08/08 02:19:18;;;;;;;6.70;3.00;;;;;;;;;;5005350;28;20113;-66
2022/08/08 02:24:56;;;;;;;8.13;2.95;;;;;;;;;;5003736;28;20046;-66
2022/08/08 02:27:41;;;;;;;6.15;3.00;;;;;;;;;;5004533;28;20042;-66
2022/08/08 02:30:16;;;;;;;6.70;3.13;;;;;;;;;;4984908;28;20047;-66
2022/08/08 02:33:16;;;;;;;5.45;3.17;;;;;;;;;;4967681;28;20100;-67
2022/08/08 02:35:54;;;;;;;5.82;3.10;;;;;;;;;;4966196;28;20055;-65
2022/08/08 02:38:53;;;;;;;6.13;3.38;;;;;;;;;;4967242;28;20524;-67
2022/08/08 02:41:22;;;;;;;8.88;3.22;;;;;;;;;;4965959;28;20053;-66
2022/08/08 02:43:57;;;;;;;5.80;3.00;;;;;;;;;;4967470;28;20047;-66
2022/08/08 02:46:42;;;;;;;6.95;3.28;;;;;;;;;;4967150;28;20043;-66
2022/08/08 02:49:17;;;;;;;7.72;3.50;;;;;;;;;;4970736;28;20058;-68
2022/08/08 02:51:56;;;;;;;5.72;3.00;;;;;;;;;;4970623;28;20042;-66
2022/08/08 02:54:54;;;;;;;6.07;3.22;;;;;;;;;;4967374;28;20054;-66
2022/08/08 02:57:44;;;;;;;8.18;3.05;;;;;;;;;;4971251;28;20130;-67
2022/08/08 03:00:37;;;;;;;5.43;3.00;;;;;;;;;;4972827;28;20047;-66
2022/08/08 03:03:26;;;;;;;8.07;3.03;;;;;;;;;;4972730;28;20050;-66
2022/08/08 03:06:21;;;;;;;6.72;3.13;;;;;;;;;;4970062;28;20055;-65
2022/08/08 03:09:32;;;;;;;6.68;2.95;;;;;;;;;;4964249;28;20057;-66
2022/08/08 03:12:12;;;;;;;9.43;3.30;;;;;;;;;;4998481;28;20506;-66
2022/08/08 03:14:47;;;;;;;6.35;3.13;;;;;;;;;;4987934;28;20091;-64
2022/08/08 03:17:36;;;;;;;9.10;3.47;;;;;;;;;;4989372;28;20543;-65
2022/08/08 03:20:05;;;;;;;7.47;3.13;;;;;;;;;;4984286;28;20047;-72
2022/08/08 03:22:31;;;;;;;6.45;3.25;;;;;;;;;;4987344;28;20491;-64
2022/08/08 03:25:03;;;;;;;6.50;3.42;;;;;;;;;;4985232;28;20046;-68
2022/08/08 03:27:36;;;;;;;8.90;3.47;;;;;;;;;;4980146;28;21168;-65
2022/08/08 03:30:08;;;;;;;7.70;3.30;;;;;;;;;;4977657;28;20619;-66
2022/08/08 03:35:24;;;;;;;7.65;3.15;;;;;;;;;;4979681;28;21697;-66
2022/08/08 03:37:51;;;;;;;6.00;3.00;;;;;;;;;;4984221;28;20444;-66
2022/08/08 03:40:19;;;;;;;8.68;3.08;;;;;;;;;;4985804;28;20050;-66
2022/08/08 03:42:47;;;;;;;7.22;2.90;;;;;;;;;;4985941;28;20060;-65
2022/08/08 03:45:18;;;;;;;7.80;3.22;;;;;;;;;;4981655;28;20042;-65
2022/08/08 03:47:55;;;;;;;7.03;3.30;;;;;;;;;;4968020;28;20429;-67
2022/08/08 03:50:21;;;;;;;5.50;3.28;;;;;;;;;;4968324;28;20059;-65
2022/08/08 03:52:47;;;;;;;7.60;3.50;;;;;;;;;;4969287;28;20053;-66
2022/08/08 03:55:15;;;;;;;9.00;3.20;;;;;;;;;;4969621;28;20075;-65
2022/08/08 03:57:46;;;;;;;5.85;3.17;;;;;;;;;;4970032;28;20061;-69
2022/08/08 04:00:14;;;;;;;4.85;3.10;;;;;;;;;;4971004;28;20472;-65
2022/08/08 04:02:40;;;;;;;9.25;3.75;;;;;;;;;;4970295;28;20504;-64
2022/08/08 04:05:07;;;;;;;7.25;3.40;;;;;;;;;;4968486;28;20043;-66
2022/08/08 04:07:40;;;;;;;6.97;3.17;;;;;;;;;;4968661;28;20058;-67
2022/08/08 04:10:07;;;;;;;6.23;3.60;;;;;;;;;;4967649;28;20113;-66
2022/08/08 04:12:33;;;;;;;5.57;3.13;;;;;;;;;;4954115;28;20096;-66
2022/08/08 04:15:00;;;;;;;7.07;2.92;;;;;;;;;;4988138;28;20126;-65
2022/08/08 04:17:26;;;;;;;8.48;3.10;;;;;;;;;;4972811;28;20051;-64
2022/08/08 04:19:52;;;;;;;8.82;3.42;;;;;;;;;;4969893;28;20051;-66
2022/08/08 04:22:18;;;;;;;7.18;3.42;;;;;;;;;;4969752;28;20083;-64
2022/08/08 04:24:44;;;;;;;9.50;3.55;;;;;;;;;;4967394;28;20303;-65
2022/08/08 04:27:10;;;;;;;5.53;3.28;;;;;;;;;;4968449;28;20488;-65
2022/08/08 04:29:36;;;;;;;7.72;3.53;;;;;;;;;;4968189;28;20058;-65
2022/08/08 04:32:02;;;;;;;12.52;3.95;;;;;;;;;;4966836;28;20049;-66
2022/08/08 04:34:28;;;;;;;4.85;3.17;;;;;;;;;;4967382;28;20054;-65
2022/08/08 04:36:53;;;;;;;6.55;3.50;;;;;;;;;;4965935;28;20451;-64
2022/08/08 04:39:19;;;;;;;8.20;3.63;;;;;;;;;;4969691;28;20046;-66
2022/08/08 04:41:45;;;;;;;6.47;3.30;;;;;;;;;;4971826;28;20502;-67
2022/08/08 04:44:11;;;;;;;9.90;3.47;;;;;;;;;;4972900;28;20054;-66
2022/08/08 04:46:36;;;;;;;9.48;3.53;;;;;;;;;;4970006;28;20051;-67
2022/08/08 04:49:02;;;;;;;10.55;3.63;;;;;;;;;;4971236;28;20057;-69
2022/08/08 04:51:28;;;;;;;9.43;3.80;;;;;;;;;;4970832;28;20112;-69
2022/08/08 04:53:54;;;;;;;5.95;3.20;;;;;;;;;;4972466;28;20043;-65
2022/08/08 04:56:20;;;;;;;8.30;3.40;;;;;;;;;;4969971;28;20276;-66
2022/08/08 04:58:46;;;;;;;10.00;3.88;;;;;;;;;;4970582;28;20125;-66
2022/08/08 05:01:11;;;;;;;9.27;3.33;;;;;;;;;;4969690;28;20478;-66
2022/08/08 05:03:37;;;;;;;6.65;3.58;;;;;;;;;;4970809;28;20074;-66
2022/08/08 05:06:04;;;;;;;8.52;3.63;;;;;;;;;;4968771;28;20058;-66
2022/08/08 05:08:29;;;;;;;10.10;3.35;;;;;;;;;;4970940;28;20062;-66
2022/08/08 05:10:55;;;;;;;9.93;3.50;;;;;;;;;;4969493;28;20496;-67
2022/08/08 05:13:21;;;;;;;8.32;3.47;;;;;;;;;;4970083;28;20057;-67
2022/08/08 05:15:47;;;;;;;9.57;3.33;;;;;;;;;;4970085;28;20055;-68
2022/08/08 05:18:13;;;;;;;6.97;3.40;;;;;;;;;;4969291;28;20540;-66
2022/08/08 05:20:39;;;;;;;7.68;3.20;;;;;;;;;;4967686;28;20054;-67
2022/08/08 05:23:05;;;;;;;5.45;3.28;;;;;;;;;;4969285;28;20050;-66
2022/08/08 05:25:31;;;;;;;9.80;3.53;;;;;;;;;;4969279;28;20043;-67
2022/08/08 05:27:56;;;;;;;7.15;3.22;;;;;;;;;;4968249;28;20043;-66
2022/08/08 05:30:22;;;;;;;6.72;3.63;;;;;;;;;;4968175;28;20066;-68
2022/08/08 05:32:48;;;;;;;7.10;3.20;;;;;;;;;;4970286;28;20069;-66
2022/08/08 05:35:18;;;;;;;9.35;3.35;;;;;;;;;;4966624;28;20511;-65
2022/08/08 05:37:53;;;;;;;7.47;3.58;;;;;;;;;;4967927;28;20051;-67
2022/08/08 05:40:19;;;;;;;7.20;3.80;;;;;;;;;;4966558;28;20456;-66
2022/08/08 05:42:50;;;;;;;9.45;3.55;;;;;;;;;;4967991;28;20096;-67
2022/08/08 05:45:16;;;;;;;10.52;3.67;;;;;;;;;;4967744;28;20039;-67
2022/08/08 05:47:43;;;;;;;11.43;3.60;;;;;;;;;;4968407;28;20058;-66
2022/08/08 05:50:10;;;;;;;9.45;3.45;;;;;;;;;;4968090;28;20051;-66
2022/08/08 05:52:37;;;;;;;9.43;3.30;;;;;;;;;;4968834;28;20081;-67
2022/08/08 05:55:10;;;;;;;7.88;3.33;;;;;;;;;;4967681;28;20047;-66
2022/08/08 05:57:38;;;;;;;12.05;3.38;;;;;;;;;;4968774;28;20078;-66
2022/08/08 06:00:07;;;;;;;9.02;3.35;;;;;;;;;;4968316;28;20245;-68
2022/08/08 06:05:21;;;;;;;11.00;3.60;;;;;;;;;;4958877;28;20035;-65
2022/08/08 06:07:49;;;;;;;10.02;3.35;;;;;;;;;;4950818;28;20057;-67
2022/08/08 06:10:16;;;;;;;9.30;3.53;;;;;;;;;;4954399;28;20466;-68
2022/08/08 06:12:43;;;;;;;10.35;3.38;;;;;;;;;;4954222;28;20125;-68
2022/08/08 06:15:10;;;;;;;7.15;3.42;;;;;;;;;;4952086;28;20051;-67
2022/08/08 06:17:42;;;;;;;8.98;3.33;;;;;;;;;;4954834;28;20655;-69
2022/08/08 06:20:12;;;;;;;9.13;3.30;;;;;;;;;;4954315;28;20106;-68
2022/08/08 06:22:39;;;;;;;7.47;3.33;;;;;;;;;;4958655;28;20046;-66
2022/08/08 06:25:06;;;;;;;7.30;3.60;;;;;;;;;;4957791;28;20057;-66
2022/08/08 06:27:37;;;;;;;13.68;3.35;;;;;;;;;;4957705;28;20059;-66
2022/08/08 06:30:08;;;;;;;10.38;3.60;;;;;;;;;;4951808;28;20054;-66
2022/08/08 06:32:56;;;;;;;9.02;3.83;;;;;;;;;;4961340;28;20125;-67
2022/08/08 06:35:22;;;;;;;11.55;3.35;;;;;;;;;;4958028;28;20055;-70
2022/08/08 06:37:52;;;;;;;9.57;3.35;;;;;;;;;;4948248;28;20715;-68
2022/08/08 06:40:21;;;;;;;9.60;3.67;;;;;;;;;;4949120;28;20103;-67
2022/08/08 06:43:07;;;;;;;12.52;3.30;;;;;;;;;;4950843;28;20079;-68
2022/08/08 06:45:35;;;;;;;15.70;3.67;;;;;;;;;;4952980;28;20063;-68
2022/08/08 06:48:01;;;;;;;6.90;3.50;;;;;;;;;;4956323;28;20062;-69
2022/08/08 06:50:28;;;;;;;12.77;3.65;;;;;;;;;;4953928;28;20050;-69
2022/08/08 06:52:54;;;;;;;12.18;3.90;;;;;;;;;;4956032;28;20051;-69
2022/08/08 06:55:24;;;;;;;12.52;3.90;;;;;;;;;;4954921;28;20058;-69
2022/08/08 06:57:50;;;;;;;5.93;4.07;;;;;;;;;;4969759;28;20046;-69
2022/08/08 07:00:17;;;;;;;12.85;3.75;;;;;;;;;;4970469;28;20145;-67
2022/08/08 07:02:53;;;;;;;10.85;3.88;;;;;;;;;;4968380;28;20043;-68
2022/08/08 07:05:24;;;;;;;17.20;4.53;;;;;;;;;;4972347;28;20062;-69
2022/08/08 07:08:11;;;;;;;13.18;4.32;;;;;;;;;;4972639;28;20766;-68
2022/08/08 07:10:44;;;;;;;12.65;4.07;;;;;;;;;;4969583;28;20088;-68
2022/08/08 07:13:16;;;;;;;14.60;4.05;;;;;;;;;;4973727;28;20089;-68
2022/08/08 07:16:20;;;;;;;19.45;4.32;;;;;;;;;;4970363;28;20046;-66
2022/08/08 07:19:05;;;;;;;11.55;3.95;;;;;;;;;;4984786;28;20065;-68
2022/08/08 07:22:02;;;;;;;18.88;4.20;;;;;;;;;;4967470;28;20043;-70
2022/08/08 07:24:50;;;;;;;11.88;3.60;;;;;;;;;;4967403;28;20521;-68
2022/08/08 07:27:22;;;;;;;9.57;3.53;;;;;;;;;;4967121;28;20050;-66
2022/08/08 07:29:47;;;;;;;13.40;3.67;;;;;;;;;;4970994;28;20063;-68
2022/08/08 07:32:14;;;;;;;13.75;3.80;;;;;;;;;;4972257;28;20051;-66
2022/08/08 07:34:42;;;;;;;9.63;3.55;;;;;;;;;;4970394;28;20747;-69
2022/08/08 07:37:11;;;;;;;13.02;3.90;;;;;;;;;;4971555;28;20133;-71
2022/08/08 07:39:42;;;;;;;8.18;3.25;;;;;;;;;;4972488;28;20094;-69
2022/08/08 07:42:10;;;;;;;9.43;3.20;;;;;;;;;;4974673;28;20050;-67
2022/08/08 07:44:37;;;;;;;8.63;3.33;;;;;;;;;;4971851;28;20058;-69
2022/08/08 07:47:03;;;;;;;11.32;3.30;;;;;;;;;;4970024;28;20503;-70
2022/08/08 07:49:29;;;;;;;11.77;3.53;;;;;;;;;;4969613;28;20060;-68
2022/08/08 07:51:56;;;;;;;8.60;3.72;;;;;;;;;;4970115;28;20050;-71
2022/08/08 07:54:33;;;;;;;7.00;3.03;;;;;;;;;;4969865;28;20113;-69
2022/08/08 07:57:44;;;;;;;9.88;3.40;;;;;;;;;;4967325;28;20058;-69
2022/08/08 08:00:13;;;;;;;7.95;3.50;;;;;;;;;;4966605;28;20090;-68
2022/08/08 08:02:41;;;;;;;13.25;3.58;;;;;;;;;;4970212;28;20546;-75
2022/08/08 08:05:27;;;;;;;11.82;3.45;;;;;;;;;;4973348;28;20423;-69
2022/08/08 08:08:09;;;;;;;11.57;3.75;;;;;;;;;;4968352;28;20109;-67
2022/08/08 08:10:37;;;;;;;8.85;3.60;;;;;;;;;;4968076;28;20416;-67
2022/08/08 08:13:21;;;;;;;12.23;3.33;;;;;;;;;;4969472;28;20047;-69
2022/08/08 08:16:08;;;;;;;12.02;3.47;;;;;;;;;;4968496;28;20058;-70
2022/08/08 08:18:47;;;;;;;8.75;3.55;;;;;;;;;;4970435;28;20054;-68
2022/08/08 08:21:15;;;;;;;7.60;3.03;;;;;;;;;;4969175;28;20382;-68
2022/08/08 08:23:41;;;;;;;7.30;3.35;;;;;;;;;;4966635;28;20053;-70
2022/08/08 08:26:07;;;;;;;12.90;3.63;;;;;;;;;;4971837;28;20138;-70
2022/08/08 08:28:33;;;;;;;7.90;3.30;;;;;;;;;;4969146;28;20074;-68
2022/08/08 08:31:03;;;;;;;5.25;3.13;;;;;;;;;;4968710;28;20584;-73
2022/08/08 08:33:30;;;;;;;10.13;3.35;;;;;;;;;;4967819;28;20050;-70
2022/08/08 08:35:56;;;;;;;9.15;3.35;;;;;;;;;;4970915;28;20047;-69
2022/08/08 08:38:22;;;;;;;8.98;2.97;;;;;;;;;;4968636;28;20050;-69
2022/08/08 08:40:49;;;;;;;7.20;3.33;;;;;;;;;;4956595;28;20077;-70
2022/08/08 08:43:19;;;;;;;11.23;3.55;;;;;;;;;;4959540;28;20778;-69
2022/08/08 08:45:48;;;;;;;7.22;3.20;;;;;;;;;;4955544;28;20457;-68
2022/08/08 08:48:18;;;;;;;14.68;3.97;;;;;;;;;;4956674;28;20054;-69
2022/08/08 08:50:51;;;;;;;7.82;3.90;;;;;;;;;;4955965;28;20101;-68
2022/08/08 08:53:18;;;;;;;8.40;3.77;;;;;;;;;;4955706;28;20554;-73
2022/08/08 08:55:44;;;;;;;10.38;3.55;;;;;;;;;;4956194;28;20054;-72
2022/08/08 08:58:38;;;;;;;9.15;3.20;;;;;;;;;;4957386;28;20064;-71
2022/08/08 09:01:05;;;;;;;9.57;3.10;;;;;;;;;;4963635;28;20083;-72
2022/08/08 09:03:32;;;;;;;11.85;3.85;;;;;;;;;;4960819;28;20058;-68
2022/08/08 09:05:58;;;;;;;7.85;3.65;;;;;;;;;;4953890;28;20054;-67
2022/08/08 09:08:26;;;;;;;10.68;4.30;;;;;;;;;;4959155;28;20070;-68
2022/08/08 09:10:53;;;;;;;5.57;3.40;;;;;;;;;;4953459;28;20074;-69
2022/08/08 09:13:20;;;;;;;10.48;3.75;;;;;;;;;;4957772;28;20043;-69
2022/08/08 09:15:46;;;;;;;9.70;3.55;;;;;;;;;;4952173;28;20053;-68
2022/08/08 09:18:16;;;;;;;18.65;4.03;;;;;;;;;;4957101;28;20527;-67
2022/08/08 09:20:45;;;;;;;6.63;3.40;;;;;;;;;;4956718;28;20129;-69
2022/08/08 09:23:13;;;;;;;10.15;3.53;;;;;;;;;;4955288;28;20051;-68
2022/08/08 09:25:45;;;;;;;9.38;4.13;;;;;;;;;;4955959;28;22081;-70
2022/08/08 09:28:11;;;;;;;8.63;3.92;;;;;;;;;;4958808;28;20058;-70
2022/08/08 09:30:41;;;;;;;7.28;3.70;;;;;;;;;;4963871;28;20046;-67
2022/08/08 09:33:09;;;;;;;7.65;3.70;;;;;;;;;;4968203;28;20058;-72
2022/08/08 09:35:37;;;;;;;7.53;3.58;;;;;;;;;;4971429;28;20105;-72
2022/08/08 09:38:04;;;;;;;11.02;3.90;;;;;;;;;;4957158;28;20186;-69
2022/08/08 09:40:33;;;;;;;7.15;3.05;;;;;;;;;;4958187;28;20050;-71
2022/08/08 09:43:22;;;;;;;10.70;3.53;;;;;;;;;;4955628;28;20043;-69
2022/08/08 09:46:01;;;;;;;10.25;3.22;;;;;;;;;;4954264;28;20054;-73
2022/08/08 09:48:32;;;;;;;10.77;3.05;;;;;;;;;;4950006;28;20518;-68
2022/08/08 09:50:59;;;;;;;7.53;3.47;;;;;;;;;;4943446;28;20062;-67
2022/08/08 09:53:51;;;;;;;10.70;3.50;;;;;;;;;;4948399;28;20555;-68
2022/08/08 09:56:20;;;;;;;12.05;3.67;;;;;;;;;;4952076;28;20113;-70
2022/08/08 09:58:58;;;;;;;9.55;3.28;;;;;;;;;;4963516;28;20053;-75
2022/08/08 10:01:25;;;;;;;7.07;3.15;;;;;;;;;;4959535;28;20067;-72
2022/08/08 10:03:55;;;;;;;8.27;3.08;;;;;;;;;;4955648;28;20051;-73
2022/08/08 10:06:21;;;;;;;7.32;3.35;;;;;;;;;;4950431;28;20047;-73
2022/08/08 10:08:48;;;;;;;10.82;3.17;;;;;;;;;;4956095;28;20090;-71
2022/08/08 10:11:22;;;;;;;7.88;3.20;;;;;;;;;;4962114;28;20050;-74
2022/08/08 10:13:57;;;;;;;6.68;3.40;;;;;;;;;;4953334;28;20424;-70
2022/08/08 10:16:24;;;;;;;7.18;3.03;;;;;;;;;;4964171;28;20038;-73
2022/08/08 10:19:02;;;;;;;5.47;3.10;;;;;;;;;;4969676;28;20050;-72
2022/08/08 10:21:32;;;;;;;12.18;3.30;;;;;;;;;;4969498;28;20047;-72
2022/08/08 10:24:09;;;;;;;9.73;3.50;;;;;;;;;;4969929;28;20505;-72
2022/08/08 10:26:35;;;;;;;5.25;3.15;;;;;;;;;;4968097;28;20046;-73
2022/08/08 10:29:10;;;;;;;11.93;3.42;;;;;;;;;;4970800;28;20189;-72
2022/08/08 10:34:27;;;;;;;6.22;3.45;;;;;;;;;;4971477;28;20050;-71
2022/08/08 10:36:53;;;;;;;6.50;3.03;;;;;;;;;;4957555;28;20051;-70
2022/08/08 10:39:22;;;;;;;9.57;3.13;;;;;;;;;;4970633;28;20500;-71
2022/08/08 10:41:59;;;;;;;7.35;2.75;;;;;;;;;;4970414;28;20047;-71
2022/08/08 10:44:39;;;;;;;11.13;3.47;;;;;;;;;;4970333;28;20047;-72
2022/08/08 10:47:13;;;;;;;12.60;2.83;;;;;;;;;;4970836;28;20061;-73
2022/08/08 10:49:50;;;;;;;7.82;3.00;;;;;;;;;;4969649;28;20054;-71
2022/08/08 10:52:33;;;;;;;6.75;2.95;;;;;;;;;;4969859;28;20053;-72
2022/08/08 10:55:00;;;;;;;8.50;3.22;;;;;;;;;;4971286;28;20088;-70
2022/08/08 10:57:26;;;;;;;12.70;3.25;;;;;;;;;;4971066;28;20073;-70
2022/08/08 10:59:57;;;;;;;7.45;2.97;;;;;;;;;;4969640;28;20047;-73
2022/08/08 11:02:24;;;;;;;5.50;3.00;;;;;;;;;;4971713;28;20374;-73
2022/08/08 11:04:50;;;;;;;7.38;3.00;;;;;;;;;;4971594;28;20130;-70
2022/08/08 11:07:36;;;;;;;5.50;2.88;;;;;;;;;;4970400;28;20058;-71
2022/08/08 11:10:04;;;;;;;6.05;3.30;;;;;;;;;;4972270;28;20134;-73
2022/08/08 11:12:32;;;;;;;6.40;3.25;;;;;;;;;;4974143;28;20039;-72
2022/08/08 11:14:59;;;;;;;7.72;3.00;;;;;;;;;;4971003;28;20078;-71
2022/08/08 11:17:28;;;;;;;8.55;3.83;;;;;;;;;;4970854;28;20042;-73
2022/08/08 11:19:54;;;;;;;8.90;3.83;;;;;;;;;;4970698;28;20046;-72
2022/08/08 11:22:31;;;;;;;8.00;3.58;;;;;;;;;;4970572;28;20047;-73
2022/08/08 11:25:02;;;;;;;11.18;3.28;;;;;;;;;;4965961;28;20494;-72
2022/08/08 11:27:33;;;;;;;10.93;2.97;;;;;;;;;;4966800;28;20039;-74
2022/08/08 11:30:01;;;;;;;7.78;3.20;;;;;;;;;;4970873;28;20053;-72
2022/08/08 11:32:31;;;;;;;8.85;3.15;;;;;;;;;;4970475;28;20105;-71
2022/08/08 11:35:05;;;;;;;7.35;2.80;;;;;;;;;;4971654;28;20053;-72
2022/08/08 11:37:33;;;;;;;6.65;2.80;;;;;;;;;;4975633;28;20105;-74
2022/08/08 11:40:00;;;;;;;7.22;2.92;;;;;;;;;;4976045;28;20074;-76
2022/08/08 11:42:29;;;;;;;11.20;3.22;;;;;;;;;;4976517;28;20039;-73
2022/08/08 11:44:55;;;;;;;14.07;2.95;;;;;;;;;;4972996;28;20097;-72
2022/08/08 11:47:22;;;;;;;7.32;3.05;;;;;;;;;;4970625;28;20074;-71
2022/08/08 11:49:54;;;;;;;11.32;3.30;;;;;;;;;;4971855;28;20366;-73
2022/08/08 11:52:22;;;;;;;10.63;3.35;;;;;;;;;;4972654;28;20046;-73
2022/08/08 11:54:48;;;;;;;5.53;2.70;;;;;;;;;;4977014;28;20085;-73
2022/08/08 11:57:26;;;;;;;6.10;3.00;;;;;;;;;;4969081;28;20550;-71
2022/08/08 11:59:57;;;;;;;7.43;3.20;;;;;;;;;;4970357;28;20568;-71
2022/08/08 12:02:25;;;;;;;8.13;3.10;;;;;;;;;;4972011;28;20040;-72
2022/08/08 12:05:03;;;;;;;8.43;2.60;;;;;;;;;;4969735;28;20433;-71
2022/08/08 12:07:29;;;;;;;7.45;2.85;;;;;;;;;;4969638;28;20046;-71
2022/08/08 12:09:55;;;;;;;7.50;2.72;;;;;;;;;;4968553;28;20386;-73
2022/08/08 12:12:25;;;;;;;6.80;2.90;;;;;;;;;;4970900;28;20139;-74
2022/08/08 12:15:03;;;;;;;8.63;3.30;;;;;;;;;;4974567;28;20218;-74
2022/08/08 12:17:34;;;;;;;8.45;3.60;;;;;;;;;;4971701;28;20043;-74
2022/08/08 12:20:03;;;;;;;9.05;3.22;;;;;;;;;;4961018;28;20039;-70
2022/08/08 12:22:31;;;;;;;9.43;3.42;;;;;;;;;;4968270;28;20075;-72
2022/08/08 12:24:58;;;;;;;6.00;3.00;;;;;;;;;;4969336;28;20070;-71
2022/08/08 12:27:24;;;;;;;8.38;3.38;;;;;;;;;;4970602;28;20054;-71
2022/08/08 12:30:00;;;;;;;8.90;3.88;;;;;;;;;;4970428;28;20180;-72
2022/08/08 12:32:26;;;;;;;10.38;3.45;;;;;;;;;;4970464;28;20039;-71
2022/08/08 12:34:57;;;;;;;6.72;3.30;;;;;;;;;;4971520;28;20043;-72
2022/08/08 12:37:26;;;;;;;8.75;3.10;;;;;;;;;;4972086;28;20414;-71
2022/08/08 12:39:52;;;;;;;10.48;3.20;;;;;;;;;;4968909;28;20137;-72
2022/08/08 12:42:19;;;;;;;5.07;2.88;;;;;;;;;;4968572;28;20043;-72
2022/08/08 12:44:44;;;;;;;5.53;3.30;;;;;;;;;;4970967;28;20043;-72
2022/08/08 12:47:11;;;;;;;11.75;3.75;;;;;;;;;;4969176;28;20633;-76
2022/08/08 12:49:38;;;;;;;9.68;3.33;;;;;;;;;;4976061;28;20054;-71
2022/08/08 12:52:05;;;;;;;7.60;3.10;;;;;;;;;;4969746;28;20081;-72
2022/08/08 12:54:33;;;;;;;8.13;3.00;;;;;;;;;;4967983;28;20078;-72
2022/08/08 12:56:59;;;;;;;7.70;2.97;;;;;;;;;;4969181;28;20129;-71
2022/08/08 12:59:29;;;;;;;9.52;3.00;;;;;;;;;;4953778;28;20083;-71
2022/08/08 13:01:58;;;;;;;8.00;2.83;;;;;;;;;;4955552;28;20460;-72
2022/08/08 13:04:25;;;;;;;7.90;3.22;;;;;;;;;;4954888;28;20066;-73
2022/08/08 13:07:04;;;;;;;10.00;2.72;;;;;;;;;;4957118;28;20117;-73
2022/08/08 13:09:36;;;;;;;9.50;3.50;;;;;;;;;;4964742;28;20424;-72
2022/08/08 13:12:23;;;;;;;8.60;3.28;;;;;;;;;;4972291;28;20050;-73
2022/08/08 13:14:51;;;;;;;7.00;2.88;;;;;;;;;;4969593;28;20078;-72
2022/08/08 13:17:21;;;;;;;7.50;2.92;;;;;;;;;;4969731;28;20129;-73
2022/08/08 13:19:47;;;;;;;7.28;2.72;;;;;;;;;;4966807;28;20485;-72
2022/08/08 13:22:17;;;;;;;5.85;2.83;;;;;;;;;;4967805;28;20047;-71
2022/08/08 13:24:43;;;;;;;13.55;3.13;;;;;;;;;;4973497;28;20050;-72
2022/08/08 13:27:13;;;;;;;7.78;3.00;;;;;;;;;;4972442;28;20042;-75
2022/08/08 13:29:52;;;;;;;7.28;2.53;;;;;;;;;;4970449;28;20500;-74
2022/08/08 13:32:20;;;;;;;6.82;2.83;;;;;;;;;;4972604;28;20074;-70
2022/08/08 13:34:54;;;;;;;7.25;2.20;;;;;;;;;;4972067;28;20125;-76
2022/08/08 13:37:23;;;;;;;4.65;2.40;;;;;;;;;;4971278;28;20059;-71
2022/08/08 13:39:50;;;;;;;7.20;2.75;;;;;;;;;;4971971;28;20054;-72
2022/08/08 13:42:18;;;;;;;6.20;2.40;;;;;;;;;;4971847;28;20046;-72
2022/08/08 13:44:44;;;;;;;6.88;2.33;;;;;;;;;;4970277;28;20061;-73
2022/08/08 13:47:16;;;;;;;6.80;2.58;;;;;;;;;;4969380;28;20047;-72
2022/08/08 13:49:41;;;;;;;9.23;2.30;;;;;;;;;;4970555;28;20042;-73
2022/08/08 13:52:09;;;;;;;6.22;2.65;;;;;;;;;;4972537;28;20054;-72
2022/08/08 13:54:37;;;;;;;6.82;2.90;;;;;;;;;;4975252;28;20508;-72
2022/08/08 13:57:11;;;;;;;7.63;2.90;;;;;;;;;;4973873;28;20042;-75
2022/08/08 13:59:47;;;;;;;7.90;2.55;;;;;;;;;;4970647;28;20073;-70
2022/08/08 14:02:22;;;;;;;8.57;2.33;;;;;;;;;;4970291;28;20058;-76
2022/08/08 14:05:14;;;;;;;6.38;2.28;;;;;;;;;;4967746;28;20053;-72
2022/08/08 14:07:45;;;;;;;6.95;2.70;;;;;;;;;;4968051;28;20038;-73
2022/08/08 14:10:18;;;;;;;6.95;2.67;;;;;;;;;;4967148;28;20073;-72
2022/08/08 14:12:45;;;;;;;12.02;3.13;;;;;;;;;;4966613;28;20497;-73
2022/08/08 14:15:32;;;;;;;6.15;2.38;;;;;;;;;;4967922;28;20584;-73
2022/08/08 14:18:01;;;;;;;6.43;2.80;;;;;;;;;;4966147;28;20055;-71
2022/08/08 14:20:30;;;;;;;6.63;2.45;;;;;;;;;;4962333;28;20113;-72
2022/08/08 14:23:06;;;;;;;6.90;2.45;;;;;;;;;;4957813;28;20050;-72
2022/08/08 14:25:46;;;;;;;8.70;2.30;;;;;;;;;;4952825;28;20042;-73
2022/08/08 14:28:14;;;;;;;10.05;2.33;;;;;;;;;;4955311;28;20046;-73
2022/08/08 14:30:39;;;;;;;6.38;2.15;;;;;;;;;;4948498;28;20324;-75
2022/08/08 14:33:06;;;;;;;6.30;2.30;;;;;;;;;;4957042;28;20831;-74
2022/08/08 14:35:32;;;;;;;7.63;2.30;;;;;;;;;;4951666;28;20055;-75
2022/08/08 14:38:05;;;;;;;8.85;2.10;;;;;;;;;;4949491;28;20050;-72
2022/08/08 14:40:31;;;;;;;7.60;2.30;;;;;;;;;;4945190;28;20047;-74
2022/08/08 14:43:00;;;;;;;10.40;2.03;;;;;;;;;;4946741;28;20054;-71
2022/08/08 14:45:28;;;;;;;8.65;2.33;;;;;;;;;;4948460;28;20055;-73
2022/08/08 14:48:01;;;;;;;3.13;2.00;;;;;;;;;;4950239;28;20576;-74
2022/08/08 14:50:31;;;;;;;9.57;2.15;;;;;;;;;;4949529;28;20054;-72
2022/08/08 14:53:03;;;;;;;9.43;2.42;;;;;;;;;;4951983;28;20070;-74
2022/08/08 14:55:31;;;;;;;6.57;2.15;;;;;;;;;;4956436;28;20093;-72
2022/08/08 14:57:57;;;;;;;7.88;2.50;;;;;;;;;;4957132;28;20053;-79
2022/08/08 15:00:24;;;;;;;6.35;2.03;;;;;;;;;;4954801;28;20184;-74
2022/08/08 15:02:54;;;;;;;9.63;2.55;;;;;;;;;;4951072;28;20780;-72
2022/08/08 15:05:22;;;;;;;5.32;2.35;;;;;;;;;;4952684;28;20133;-71
2022/08/08 15:07:49;;;;;;;10.02;2.20;;;;;;;;;;4950787;28;20074;-73
2022/08/08 15:10:17;;;;;;;6.60;2.25;;;;;;;;;;4952326;28;20046;-74
2022/08/08 15:12:45;;;;;;;6.10;2.28;;;;;;;;;;4948040;28;20058;-77
2022/08/08 15:15:13;;;;;;;6.57;2.45;;;;;;;;;;4958207;28;20053;-78
2022/08/08 15:17:43;;;;;;;8.25;2.20;;;;;;;;;;4956954;28;20066;-78
2022/08/08 15:20:11;;;;;;;6.32;2.28;;;;;;;;;;4954835;28;20118;-77
2022/08/08 15:22:38;;;;;;;10.27;2.40;;;;;;;;;;4948808;28;20525;-74
2022/08/08 15:25:06;;;;;;;5.43;2.08;;;;;;;;;;4954404;28;20486;-76
2022/08/08 15:27:32;;;;;;;7.35;2.25;;;;;;;;;;4969732;28;20510;-78